Time;durP1;ratioP1;P1;durP2;ratioP2;P2;SDS_P1;SDS_P2;PMS_P1;PMS_P2;Temp;Humidity;BMP_temperature;BMP_pressure;BME280_temperature;BME280_humidity;BME280_pressure;Samples;Min_cycle;Max_cycle;Signal;HPM_P1;HPM_P2
2021/10/03 00:02:24;;;;;;;0.40;0.27;;;;;;;16.12;86.47;100327.50;5054826;28;20450;-70
2021/10/03 00:04:53;;;;;;;0.40;0.20;;;;;;;16.09;86.00;100311.81;5054768;28;20457;-70
2021/10/03 00:07:22;;;;;;;0.40;0.30;;;;;;;16.16;86.38;100322.16;5054587;28;20485;-70
2021/10/03 00:09:48;;;;;;;0.40;0.20;;;;;;;16.17;86.34;100318.28;5054674;28;20447;-70
2021/10/03 00:12:17;;;;;;;0.40;0.30;;;;;;;16.16;86.38;100311.22;5054652;28;20496;-70
2021/10/03 00:14:44;;;;;;;0.40;0.30;;;;;;;16.15;86.64;100306.88;5054625;28;20450;-69
2021/10/03 00:17:10;;;;;;;0.80;0.53;;;;;;;16.12;86.64;100296.66;5054488;28;20430;-69
2021/10/03 00:19:38;;;;;;;0.40;0.20;;;;;;;16.08;85.82;100306.69;5054068;28;20485;-69
2021/10/03 00:22:05;;;;;;;0.50;0.50;;;;;;;16.02;85.32;100302.59;5053795;28;20982;-69
2021/10/03 00:24:32;;;;;;;0.40;0.30;;;;;;;15.93;84.87;100299.97;5054061;28;20969;-68
2021/10/03 00:26:59;;;;;;;0.40;0.30;;;;;;;15.98;84.77;100301.69;5054012;28;21035;-69
2021/10/03 00:29:27;;;;;;;0.40;0.30;;;;;;;15.95;86.09;100296.91;5054299;28;20855;-69
2021/10/03 00:31:54;;;;;;;0.40;0.30;;;;;;;15.93;86.43;100289.06;5054256;28;20446;-69
2021/10/03 00:34:20;;;;;;;0.40;0.30;;;;;;;15.94;86.75;100287.94;5054209;28;20449;-68
2021/10/03 00:36:47;;;;;;;0.40;0.30;;;;;;;16.06;85.45;100295.28;5054145;28;20445;-69
2021/10/03 00:39:13;;;;;;;0.40;0.30;;;;;;;16.03;86.53;100287.81;5054095;28;20800;-69
2021/10/03 00:41:40;;;;;;;0.40;0.27;;;;;;;16.07;84.52;100277.75;5054039;28;20446;-69
2021/10/03 00:44:07;;;;;;;0.40;0.30;;;;;;;16.09;85.21;100281.75;5054045;28;20465;-69
2021/10/03 00:46:35;;;;;;;0.40;0.30;;;;;;;16.07;85.07;100277.75;5053599;28;21053;-69
2021/10/03 00:49:01;;;;;;;0.40;0.20;;;;;;;16.04;85.01;100273.00;5053668;28;20469;-69
2021/10/03 00:51:28;;;;;;;0.40;0.30;;;;;;;16.04;84.80;100283.94;5053973;28;20450;-69
2021/10/03 00:53:54;;;;;;;0.40;0.30;;;;;;;16.07;83.88;100275.84;5053858;28;20442;-69
2021/10/03 00:56:21;;;;;;;0.40;0.23;;;;;;;16.00;83.29;100277.56;5053518;28;20818;-69
2021/10/03 00:58:47;;;;;;;0.40;0.30;;;;;;;15.99;84.08;100275.97;5053678;28;20467;-69
2021/10/03 01:01:14;;;;;;;0.40;0.30;;;;;;;15.95;83.17;100270.41;5054011;28;20442;-68
2021/10/03 01:03:42;;;;;;;0.40;0.30;;;;;;;15.94;82.67;100273.44;5053661;28;20434;-69
2021/10/03 01:06:09;;;;;;;0.40;0.20;;;;;;;15.93;82.67;100269.13;5053142;28;20485;-69
2021/10/03 01:08:36;;;;;;;0.40;0.30;;;;;;;15.91;82.62;100264.03;5053537;28;20485;-69
2021/10/03 01:11:03;;;;;;;0.40;0.30;;;;;;;15.93;83.03;100264.47;5053620;28;20465;-69
2021/10/03 01:13:30;;;;;;;0.40;0.20;;;;;;;15.98;83.11;100266.97;5053574;28;20480;-69
2021/10/03 01:15:56;;;;;;;0.40;0.30;;;;;;;15.94;82.91;100268.81;5053172;28;20821;-69
2021/10/03 01:18:24;;;;;;;0.40;0.30;;;;;;;15.98;83.35;100268.91;5053193;28;20491;-69
2021/10/03 01:20:52;;;;;;;0.50;0.40;;;;;;;15.96;82.68;100271.19;5053425;28;20492;-69
2021/10/03 01:23:21;;;;;;;0.40;0.27;;;;;;;15.98;82.06;100266.16;5053392;28;20438;-69
2021/10/03 01:25:49;;;;;;;0.40;0.30;;;;;;;15.99;81.79;100260.38;5053264;28;20442;-69
2021/10/03 01:28:18;;;;;;;0.40;0.27;;;;;;;16.02;81.57;100262.41;5053020;28;20477;-69
2021/10/03 01:30:47;;;;;;;0.40;0.30;;;;;;;16.04;80.79;100257.41;5053218;28;20446;-69
2021/10/03 01:33:15;;;;;;;0.40;0.20;;;;;;;16.07;80.28;100264.09;5053238;28;20438;-69
2021/10/03 01:35:42;;;;;;;0.40;0.30;;;;;;;16.12;79.00;100252.94;5053226;28;20449;-69
2021/10/03 01:38:11;;;;;;;0.40;0.30;;;;;;;16.11;79.28;100252.16;5052815;28;20465;-69
2021/10/03 01:40:39;;;;;;;0.40;0.20;;;;;;;16.18;78.34;100256.22;5053129;28;20457;-69
2021/10/03 01:43:06;;;;;;;0.40;0.30;;;;;;;16.08;78.80;100238.38;5053143;28;20443;-69
2021/10/03 01:45:32;;;;;;;0.40;0.30;;;;;;;16.07;78.35;100255.88;5053097;28;20438;-69
2021/10/03 01:48:06;;;;;;;0.40;0.30;;;;;;;16.11;77.18;100259.53;5052936;28;20490;-69
2021/10/03 01:50:33;;;;;;;0.40;0.30;;;;;;;16.06;78.50;100255.09;5053084;28;20483;-70
2021/10/03 01:53:00;;;;;;;0.40;0.20;;;;;;;16.04;78.63;100253.88;5053055;28;20450;-69
2021/10/03 01:55:26;;;;;;;0.40;0.30;;;;;;;16.03;78.49;100255.03;5053039;28;20450;-70
2021/10/03 01:57:54;;;;;;;2.60;1.73;;;;;;;16.00;79.51;100248.28;5052883;28;20462;-69
2021/10/03 02:00:20;;;;;;;0.40;0.27;;;;;;;15.97;77.09;100250.91;5052989;28;20445;-69
2021/10/03 02:02:47;;;;;;;0.40;0.30;;;;;;;16.03;76.57;100249.56;5052981;28;20809;-69
2021/10/03 02:05:13;;;;;;;0.40;0.30;;;;;;;15.97;76.18;100245.47;5052629;28;20931;-69
2021/10/03 02:07:40;;;;;;;0.40;0.30;;;;;;;15.91;76.46;100241.38;5052731;28;20509;-69
2021/10/03 02:10:07;;;;;;;0.40;0.30;;;;;;;15.88;76.26;100251.84;5052933;28;20466;-69
2021/10/03 02:12:33;;;;;;;0.40;0.30;;;;;;;15.93;75.94;100247.28;5052543;28;20442;-69
2021/10/03 02:15:01;;;;;;;0.80;0.60;;;;;;;15.80;76.98;100244.56;5052854;28;20472;-69
2021/10/03 02:17:30;;;;;;;0.40;0.20;;;;;;;15.75;77.61;100244.81;5056301;28;20442;-70
2021/10/03 02:19:58;;;;;;;0.40;0.30;;;;;;;15.83;77.53;100241.16;5056854;28;20449;-69
2021/10/03 02:22:26;;;;;;;0.40;0.30;;;;;;;15.86;78.00;100236.97;5056461;28;20986;-70
2021/10/03 02:24:56;;;;;;;0.40;0.20;;;;;;;15.93;76.80;100233.63;5056653;28;20441;-69
2021/10/03 02:27:22;;;;;;;0.40;0.20;;;;;;;15.95;75.77;100242.28;5056524;28;20531;-69
2021/10/03 02:29:49;;;;;;;0.40;0.30;;;;;;;15.97;76.55;100229.84;5056633;28;20449;-69
2021/10/03 02:32:17;;;;;;;0.50;0.40;;;;;;;15.96;76.78;100241.13;5056260;28;20943;-69
2021/10/03 02:34:43;;;;;;;0.40;0.30;;;;;;;15.97;75.75;100229.84;5056494;28;20495;-69
2021/10/03 02:37:10;;;;;;;0.40;0.30;;;;;;;15.99;76.42;100233.06;5056198;28;20813;-69
2021/10/03 02:39:37;;;;;;;0.63;0.63;;;;;;;15.98;75.52;100226.00;5056339;28;20458;-69
2021/10/03 02:42:04;;;;;;;0.40;0.30;;;;;;;15.95;76.16;100236.81;5056373;28;20438;-69
2021/10/03 02:44:30;;;;;;;0.40;0.20;;;;;;;15.97;75.85;100224.38;5056360;28;20431;-69
2021/10/03 02:46:57;;;;;;;0.40;0.30;;;;;;;15.98;76.13;100228.75;5056218;28;20489;-69
2021/10/03 02:49:25;;;;;;;0.40;0.30;;;;;;;15.98;75.10;100238.84;5056200;28;20496;-69
2021/10/03 02:51:51;;;;;;;0.40;0.30;;;;;;;15.96;75.96;100222.00;5055878;28;20989;-69
2021/10/03 02:54:18;;;;;;;2.10;1.90;;;;;;;15.96;74.73;100232.94;5055818;28;20470;-69
2021/10/03 02:56:44;;;;;;;0.40;0.30;;;;;;;15.93;75.36;100239.09;5056072;28;20434;-69
2021/10/03 02:59:10;;;;;;;0.57;0.57;;;;;;;15.89;75.92;100237.06;5055968;28;20457;-69
2021/10/03 03:01:37;;;;;;;0.40;0.20;;;;;;;15.86;75.81;100224.09;5055991;28;20442;-69
2021/10/03 03:04:04;;;;;;;0.40;0.20;;;;;;;15.86;76.63;100218.63;5056000;28;20445;-69
2021/10/03 03:06:31;;;;;;;0.40;0.20;;;;;;;15.86;75.02;100213.16;5055543;28;20446;-69
2021/10/03 03:08:58;;;;;;;0.40;0.30;;;;;;;15.82;75.47;100222.41;5055799;28;20466;-69
2021/10/03 03:11:25;;;;;;;0.50;0.50;;;;;;;15.79;75.29;100218.41;5055837;28;20450;-69
2021/10/03 03:13:51;;;;;;;0.40;0.20;;;;;;;15.74;75.07;100215.13;5055772;28;20537;-69
2021/10/03 03:16:18;;;;;;;0.40;0.20;;;;;;;15.74;75.16;100215.13;5055761;28;20449;-69
2021/10/03 03:18:44;;;;;;;0.40;0.23;;;;;;;15.69;75.15;100213.44;5055386;28;20480;-69
2021/10/03 03:21:11;;;;;;;0.40;0.30;;;;;;;15.70;74.96;100211.50;5055654;28;20438;-69
2021/10/03 03:23:39;;;;;;;0.40;0.30;;;;;;;15.71;75.45;100218.53;5055268;28;20446;-69
2021/10/03 03:26:06;;;;;;;0.40;0.20;;;;;;;15.78;74.48;100216.81;5055572;28;20449;-69
2021/10/03 03:28:32;;;;;;;0.40;0.30;;;;;;;15.81;74.59;100216.16;5054805;28;20482;-70
2021/10/03 03:30:59;;;;;;;0.40;0.30;;;;;;;15.81;75.07;100218.88;5055448;28;20450;-69
2021/10/03 03:33:25;;;;;;;0.40;0.30;;;;;;;15.78;74.95;100216.03;5055468;28;20446;-70
2021/10/03 03:35:52;;;;;;;0.40;0.30;;;;;;;15.79;75.99;100218.41;5055365;28;20450;-69
2021/10/03 03:38:18;;;;;;;0.40;0.30;;;;;;;15.70;75.61;100215.00;5055270;28;20458;-68
2021/10/03 03:40:46;;;;;;;0.40;0.20;;;;;;;15.77;74.51;100215.25;5055250;28;20442;-68
2021/10/03 03:43:13;;;;;;;0.40;0.30;;;;;;;15.76;74.61;100215.56;5055231;28;20439;-68
2021/10/03 03:45:39;;;;;;;0.40;0.30;;;;;;;15.74;74.63;100210.47;5054852;28;20932;-68
2021/10/03 03:48:06;;;;;;;0.40;0.20;;;;;;;15.73;74.37;100208.09;5055009;28;20485;-68
2021/10/03 03:50:33;;;;;;;0.40;0.27;;;;;;;15.77;74.61;100215.25;5055078;28;20446;-68
2021/10/03 03:53:00;;;;;;;0.40;0.30;;;;;;;15.73;75.49;100214.34;5055386;28;20438;-68
2021/10/03 03:55:27;;;;;;;0.40;0.30;;;;;;;15.75;74.84;100213.97;5055019;28;20430;-68
2021/10/03 03:57:56;;;;;;;0.97;0.93;;;;;;;15.79;75.03;100212.16;5054841;28;20502;-68
2021/10/03 04:00:22;;;;;;;0.40;0.30;;;;;;;15.73;74.89;100210.81;5054600;28;20820;-68
2021/10/03 04:02:49;;;;;;;0.50;0.50;;;;;;;15.67;73.79;100213.00;5054829;28;20449;-67
2021/10/03 04:05:16;;;;;;;0.40;0.20;;;;;;;15.61;73.48;100217.06;5054796;28;20474;-68
2021/10/03 04:07:42;;;;;;;0.40;0.30;;;;;;;15.59;74.14;100213.88;5054292;28;20486;-69
2021/10/03 04:10:09;;;;;;;0.40;0.30;;;;;;;15.59;74.99;100219.34;5054780;28;20450;-69
2021/10/03 04:12:36;;;;;;;1.43;1.33;;;;;;;15.54;75.49;100216.84;5054690;28;20438;-69
2021/10/03 04:15:04;;;;;;;0.40;0.30;;;;;;;15.61;74.08;100208.88;5054665;28;20442;-69
2021/10/03 04:17:31;;;;;;;0.63;0.63;;;;;;;15.67;74.84;100210.25;5054013;28;20454;-69
2021/10/03 04:19:57;;;;;;;0.40;0.30;;;;;;;15.67;75.19;100204.81;5054564;28;20498;-69
2021/10/03 04:22:24;;;;;;;0.40;0.20;;;;;;;15.71;74.82;100215.81;5054119;28;20977;-68
2021/10/03 04:24:50;;;;;;;0.40;0.30;;;;;;;15.65;75.88;100212.53;5054114;28;20442;-69
2021/10/03 04:27:17;;;;;;;0.40;0.20;;;;;;;15.69;75.58;100213.44;5054230;28;20603;-69
2021/10/03 04:29:44;;;;;;;0.40;0.30;;;;;;;15.71;74.13;100210.34;5054318;28;20469;-69
2021/10/03 04:32:11;;;;;;;0.40;0.30;;;;;;;15.70;74.90;100198.63;5055698;28;20450;-69
2021/10/03 04:34:38;;;;;;;0.40;0.20;;;;;;;15.72;74.23;100207.28;5054220;28;20446;-69
2021/10/03 04:37:05;;;;;;;0.67;0.67;;;;;;;15.71;75.15;100200.22;5054177;28;20450;-71
2021/10/03 04:39:32;;;;;;;0.40;0.20;;;;;;;15.71;74.74;100204.88;5053169;28;20490;-67
2021/10/03 04:41:59;;;;;;;0.40;0.20;;;;;;;15.71;74.88;100200.22;5054105;28;20512;-68
2021/10/03 04:44:25;;;;;;;0.40;0.37;;;;;;;15.75;73.38;100194.88;5054051;28;20441;-67
2021/10/03 04:46:52;;;;;;;0.40;0.30;;;;;;;15.74;73.43;100194.06;5053506;28;20458;-68
2021/10/03 04:49:20;;;;;;;0.40;0.20;;;;;;;15.75;74.07;100214.78;5053589;28;21002;-68
2021/10/03 04:51:46;;;;;;;0.40;0.20;;;;;;;15.72;73.91;100206.50;5053908;28;20438;-68
2021/10/03 04:54:13;;;;;;;0.40;0.30;;;;;;;15.73;74.69;100206.16;5053800;28;20438;-68
2021/10/03 04:56:39;;;;;;;0.40;0.20;;;;;;;15.74;74.16;100210.47;5053523;28;20931;-68
2021/10/03 04:59:06;;;;;;;0.40;0.30;;;;;;;15.70;74.67;100216.94;5053410;28;20458;-68
2021/10/03 05:01:32;;;;;;;0.40;0.23;;;;;;;15.70;74.81;100204.09;5053775;28;20445;-67
2021/10/03 05:03:59;;;;;;;0.40;0.30;;;;;;;15.73;76.28;100213.53;5053624;28;20442;-68
2021/10/03 05:06:26;;;;;;;0.40;0.30;;;;;;;15.69;74.66;100210.69;5053658;28;20449;-68
2021/10/03 05:08:53;;;;;;;0.40;0.20;;;;;;;15.70;73.78;100217.75;5053424;28;20517;-68
2021/10/03 05:11:20;;;;;;;0.40;0.20;;;;;;;15.68;73.83;100214.56;5053549;28;20449;-68
2021/10/03 05:13:47;;;;;;;0.40;0.30;;;;;;;15.64;74.20;100211.75;5053549;28;20465;-68
2021/10/03 05:16:13;;;;;;;0.50;0.40;;;;;;;15.61;73.85;100212.38;5053484;28;20446;-68
2021/10/03 05:18:39;;;;;;;0.40;0.20;;;;;;;15.64;73.25;100210.94;5053061;28;20482;-68
2021/10/03 05:21:06;;;;;;;0.40;0.30;;;;;;;15.65;75.20;100204.34;5053379;28;20457;-67
2021/10/03 05:23:34;;;;;;;0.40;0.20;;;;;;;15.64;75.13;100209.00;5053392;28;20438;-70
2021/10/03 05:26:01;;;;;;;0.40;0.30;;;;;;;15.64;75.83;100210.94;5053351;28;20450;-69
2021/10/03 05:28:27;;;;;;;0.40;0.30;;;;;;;15.64;76.18;100210.94;5053175;28;20559;-68
2021/10/03 05:30:54;;;;;;;0.40;0.30;;;;;;;15.68;75.25;100214.56;5052997;28;20936;-69
2021/10/03 05:33:20;;;;;;;0.40;0.30;;;;;;;15.70;74.43;100206.03;5053233;28;20446;-70
2021/10/03 05:35:47;;;;;;;0.40;0.20;;;;;;;15.68;74.51;100205.59;5053120;28;20446;-71
2021/10/03 05:38:13;;;;;;;0.40;0.20;;;;;;;15.66;74.27;100216.06;5053068;28;20879;-70
2021/10/03 05:40:41;;;;;;;1.47;1.37;;;;;;;15.70;74.40;100212.28;5053161;28;20794;-71
2021/10/03 05:43:07;;;;;;;0.40;0.30;;;;;;;15.67;75.88;100207.53;5052817;28;20963;-70
2021/10/03 05:45:34;;;;;;;0.50;0.30;;;;;;;15.69;75.83;100213.44;5053084;28;20446;-70
2021/10/03 05:48:00;;;;;;;0.40;0.30;;;;;;;15.73;74.09;100225.25;5052916;28;20481;-70
2021/10/03 05:50:27;;;;;;;0.40;0.30;;;;;;;15.80;74.24;100220.00;5052807;28;20439;-71
2021/10/03 05:52:53;;;;;;;0.40;0.30;;;;;;;15.84;74.76;100218.16;5053023;28;20446;-70
2021/10/03 05:55:20;;;;;;;0.40;0.30;;;;;;;15.86;74.21;100218.63;5053047;28;20469;-71
2021/10/03 05:57:47;;;;;;;1.33;1.23;;;;;;;15.81;75.93;100215.34;5052924;28;20462;-70
2021/10/03 06:00:15;;;;;;;0.40;0.30;;;;;;;15.79;76.30;100215.69;5052706;28;20958;-71
2021/10/03 06:02:41;;;;;;;0.40;0.20;;;;;;;15.80;76.10;100222.72;5053029;28;20441;-71
2021/10/03 06:05:08;;;;;;;1.90;1.80;;;;;;;15.83;75.85;100213.84;5052931;28;20492;-71
2021/10/03 06:07:35;;;;;;;0.40;0.30;;;;;;;15.85;75.09;100211.59;5052487;28;21003;-71
2021/10/03 06:10:01;;;;;;;0.40;0.20;;;;;;;15.86;74.65;100215.91;5052611;28;20958;-71
2021/10/03 06:12:28;;;;;;;0.40;0.30;;;;;;;15.94;74.40;100219.63;5052602;28;20951;-70
2021/10/03 06:14:55;;;;;;;0.40;0.20;;;;;;;15.97;74.87;100210.72;5052546;28;20932;-70
2021/10/03 06:17:22;;;;;;;0.40;0.30;;;;;;;15.94;74.08;100207.91;5052813;28;20434;-71
2021/10/03 06:19:48;;;;;;;0.40;0.20;;;;;;;15.95;74.19;100213.03;5052802;28;20445;-70
2021/10/03 06:22:15;;;;;;;0.40;0.30;;;;;;;15.99;74.28;100211.19;5052810;28;20854;-70
2021/10/03 06:24:42;;;;;;;0.40;0.20;;;;;;;15.99;74.65;100210.41;5052788;28;20449;-70
2021/10/03 06:27:08;;;;;;;0.40;0.30;;;;;;;16.04;75.00;100212.88;5052392;28;20813;-70
2021/10/03 06:29:35;;;;;;;0.40;0.30;;;;;;;16.05;74.51;100209.00;5052593;28;20493;-70
2021/10/03 06:32:03;;;;;;;0.40;0.30;;;;;;;16.12;74.85;100220.16;5052694;28;20794;-70
2021/10/03 06:34:29;;;;;;;0.40;0.30;;;;;;;16.10;74.55;100208.75;5052708;28;20450;-70
2021/10/03 06:36:56;;;;;;;0.40;0.30;;;;;;;16.08;74.88;100205.59;5052626;28;20874;-70
2021/10/03 06:39:22;;;;;;;0.40;0.23;;;;;;;16.08;74.02;100200.91;5052646;28;20458;-70
2021/10/03 06:41:49;;;;;;;0.40;0.20;;;;;;;16.12;73.21;100206.50;5052589;28;20474;-70
2021/10/03 06:44:15;;;;;;;0.40;0.20;;;;;;;16.16;73.37;100210.13;5052582;28;20450;-70
2021/10/03 06:46:42;;;;;;;0.40;0.30;;;;;;;16.14;72.67;100206.91;5052261;28;21031;-69
2021/10/03 06:49:09;;;;;;;0.40;0.30;;;;;;;16.10;73.36;100206.81;5052371;28;20493;-69
2021/10/03 06:51:36;;;;;;;0.40;0.30;;;;;;;16.10;74.01;100208.75;5052504;28;20445;-68
2021/10/03 06:54:03;;;;;;;0.67;0.67;;;;;;;16.16;73.21;100210.13;5052451;28;20825;-69
2021/10/03 06:56:30;;;;;;;0.40;0.30;;;;;;;16.16;74.19;100221.06;5052489;28;20821;-69
2021/10/03 06:58:57;;;;;;;0.40;0.30;;;;;;;16.24;73.68;100213.81;5052387;28;20489;-69
2021/10/03 07:01:23;;;;;;;0.40;0.20;;;;;;;16.30;73.44;100215.19;5052431;28;20438;-69
2021/10/03 07:03:50;;;;;;;0.40;0.30;;;;;;;16.31;72.46;100217.56;5054798;28;20438;-69
2021/10/03 07:06:18;;;;;;;0.40;0.30;;;;;;;16.35;72.06;100221.19;5055935;28;20434;-69
2021/10/03 07:08:45;;;;;;;0.40;0.20;;;;;;;16.39;72.12;100216.63;5055720;28;20512;-69
2021/10/03 07:11:11;;;;;;;0.40;0.30;;;;;;;16.47;73.23;100225.00;5055812;28;20438;-68
2021/10/03 07:13:38;;;;;;;0.40;0.30;;;;;;;16.50;73.92;100219.63;5055503;28;20449;-68
2021/10/03 07:16:05;;;;;;;0.40;0.30;;;;;;;16.58;72.67;100226.88;5055749;28;20466;-69
2021/10/03 07:18:31;;;;;;;0.40;0.27;;;;;;;16.65;71.98;100242.69;5055406;28;20474;-69
2021/10/03 07:20:57;;;;;;;0.40;0.30;;;;;;;16.72;73.60;100233.88;5055576;28;20441;-69
2021/10/03 07:23:28;;;;;;;0.40;0.30;;;;;;;16.76;74.04;100227.38;5055349;28;20442;-69
2021/10/03 07:25:55;;;;;;;0.40;0.30;;;;;;;16.83;72.50;100227.56;5055232;28;20427;-69
2021/10/03 07:28:23;;;;;;;0.40;0.30;;;;;;;16.91;73.26;100220.34;5055359;28;20486;-69
2021/10/03 07:30:50;;;;;;;0.40;0.30;;;;;;;16.93;73.12;100220.78;5055399;28;20465;-69
2021/10/03 07:33:18;;;;;;;0.40;0.20;;;;;;;17.05;70.85;100217.94;5055338;28;20442;-68
2021/10/03 07:35:44;;;;;;;0.40;0.30;;;;;;;17.07;71.32;100223.84;5055403;28;20478;-69
2021/10/03 07:38:11;;;;;;;0.40;0.20;;;;;;;17.17;70.83;100225.25;5054951;28;20461;-68
2021/10/03 07:40:39;;;;;;;0.40;0.23;;;;;;;17.20;71.64;100227.28;5055273;28;20438;-68
2021/10/03 07:43:05;;;;;;;0.40;0.30;;;;;;;17.22;72.05;100216.81;5055252;28;20442;-68
2021/10/03 07:45:31;;;;;;;0.40;0.30;;;;;;;17.19;72.48;100220.25;5055206;28;20450;-69
2021/10/03 07:47:58;;;;;;;0.40;0.30;;;;;;;17.22;71.20;100233.22;5054972;28;20466;-69
2021/10/03 07:50:25;;;;;;;0.40;0.30;;;;;;;17.12;72.72;100236.47;5055129;28;20449;-69
2021/10/03 07:52:51;;;;;;;0.40;0.30;;;;;;;17.13;72.70;100238.06;5055102;28;20450;-69
2021/10/03 07:55:18;;;;;;;0.40;0.20;;;;;;;17.11;71.99;100229.41;5055077;28;20496;-68
2021/10/03 07:57:45;;;;;;;0.40;0.20;;;;;;;17.06;72.15;100229.69;5054973;28;20469;-69
2021/10/03 08:00:12;;;;;;;0.40;0.20;;;;;;;17.02;71.69;100228.81;5054972;28;20485;-69
2021/10/03 08:02:39;;;;;;;0.40;0.30;;;;;;;17.06;71.95;100237.91;5054911;28;20492;-69
2021/10/03 08:05:07;;;;;;;0.40;0.30;;;;;;;16.97;74.16;100234.53;5054849;28;20485;-69
2021/10/03 08:07:33;;;;;;;0.40;0.30;;;;;;;16.97;73.83;100220.88;5054761;28;20446;-68
2021/10/03 08:10:00;;;;;;;0.40;0.30;;;;;;;17.01;72.86;100228.00;5054360;28;20489;-68
2021/10/03 08:12:28;;;;;;;0.40;0.30;;;;;;;17.10;72.13;100239.56;5054726;28;20492;-68
2021/10/03 08:14:56;;;;;;;0.40;0.20;;;;;;;17.13;73.62;100230.66;5054507;28;20470;-68
2021/10/03 08:17:22;;;;;;;0.40;0.30;;;;;;;17.19;74.33;100233.13;5053952;28;20790;-68
2021/10/03 08:19:49;;;;;;;0.40;0.30;;;;;;;17.32;73.59;100231.88;5053696;28;20435;-68
2021/10/03 08:22:15;;;;;;;0.40;0.27;;;;;;;17.38;70.93;100225.78;5054508;28;20453;-68
2021/10/03 08:24:41;;;;;;;0.40;0.23;;;;;;;17.46;71.17;100224.00;5054438;28;20449;-69
2021/10/03 08:27:08;;;;;;;0.40;0.20;;;;;;;17.51;72.57;100217.44;5054386;28;20447;-69
2021/10/03 08:29:34;;;;;;;0.40;0.20;;;;;;;17.54;71.60;100212.06;5054214;28;20856;-70
2021/10/03 08:32:02;;;;;;;0.40;0.30;;;;;;;17.59;71.18;100209.03;5054311;28;20442;-70
2021/10/03 08:34:29;;;;;;;0.73;0.73;;;;;;;17.58;70.91;100201.97;5054277;28;20430;-69
2021/10/03 08:36:55;;;;;;;0.40;0.30;;;;;;;17.63;72.10;100198.16;5054126;28;20446;-69
2021/10/03 08:39:22;;;;;;;0.40;0.20;;;;;;;17.61;71.41;100201.25;5054104;28;20454;-69
2021/10/03 08:41:48;;;;;;;0.40;0.20;;;;;;;17.66;71.43;100197.44;5054391;28;20442;-70
2021/10/03 08:44:15;;;;;;;0.40;0.30;;;;;;;17.71;72.31;100205.41;5054090;28;20508;-69
2021/10/03 08:46:42;;;;;;;0.40;0.30;;;;;;;17.75;71.79;100203.56;5053720;28;20795;-68
2021/10/03 08:49:10;;;;;;;0.40;0.20;;;;;;;17.90;71.02;100196.41;5053846;28;20569;-69
2021/10/03 08:51:36;;;;;;;0.40;0.30;;;;;;;18.07;69.11;100195.19;5053960;28;20811;-69
2021/10/03 08:54:03;;;;;;;0.40;0.23;;;;;;;18.22;69.92;100197.06;5053876;28;20469;-69
2021/10/03 08:56:30;;;;;;;0.40;0.20;;;;;;;18.27;67.96;100204.97;5053526;28;20841;-69
2021/10/03 08:58:57;;;;;;;0.40;0.30;;;;;;;18.28;68.29;100201.09;5053908;28;20463;-69
2021/10/03 09:01:23;;;;;;;0.40;0.30;;;;;;;18.30;68.21;100196.03;5053670;28;20941;-69
2021/10/03 09:03:51;;;;;;;0.40;0.20;;;;;;;18.28;69.79;100187.41;5054127;28;20442;-69
2021/10/03 09:06:20;;;;;;;0.40;0.30;;;;;;;18.15;70.29;100194.97;5053498;28;20925;-69
2021/10/03 09:08:49;;;;;;;0.40;0.20;;;;;;;18.21;68.90;100198.22;5053616;28;20478;-69
2021/10/03 09:11:17;;;;;;;0.40;0.20;;;;;;;18.21;69.32;100194.69;5053257;28;20944;-69
2021/10/03 09:13:47;;;;;;;0.40;0.30;;;;;;;18.26;69.33;100197.13;5053548;28;20442;-69
2021/10/03 09:16:16;;;;;;;0.40;0.20;;;;;;;18.21;68.84;100195.47;5053520;28;20442;-69
2021/10/03 09:18:46;;;;;;;0.40;0.30;;;;;;;18.23;67.75;100192.38;5053130;28;20466;-69
2021/10/03 09:21:14;;;;;;;0.40;0.27;;;;;;;18.18;68.49;100185.22;5053649;28;20441;-69
2021/10/03 09:23:42;;;;;;;0.50;0.50;;;;;;;18.05;70.23;100181.03;5053359;28;20442;-69
2021/10/03 09:26:14;;;;;;;19.63;4.33;;;;;;;18.07;70.36;100196.00;5052820;28;20442;-70
2021/10/03 09:28:42;;;;;;;0.40;0.20;;;;;;;18.07;69.80;100195.19;5053084;28;20497;-69
2021/10/03 09:31:10;;;;;;;0.40;0.20;;;;;;;18.07;71.67;100184.25;5053295;28;20451;-69
2021/10/03 09:33:43;;;;;;;0.40;0.30;;;;;;;18.12;70.79;100192.97;5053277;28;20442;-69
2021/10/03 09:36:10;;;;;;;0.40;0.20;;;;;;;18.25;69.22;100198.28;5053213;28;20452;-69
2021/10/03 09:38:50;;;;;;;0.40;0.30;;;;;;;18.32;69.48;100201.16;5052801;28;21001;-69
2021/10/03 09:41:20;;;;;;;0.40;0.30;;;;;;;18.33;70.45;100202.75;5053195;28;20426;-69
2021/10/03 09:43:51;;;;;;;0.40;0.30;;;;;;;18.32;69.23;100199.19;5053216;28;20442;-69
2021/10/03 09:46:46;;;;;;;0.40;0.30;;;;;;;18.36;69.43;100205.56;5053278;28;20426;-70
2021/10/03 09:49:14;;;;;;;0.40;0.30;;;;;;;18.28;70.14;100192.88;5017261;28;21070;-69
2021/10/03 09:51:42;;;;;;;0.40;0.30;;;;;;;18.18;71.04;100196.19;5052937;28;20446;-69
2021/10/03 09:54:10;;;;;;;0.40;0.30;;;;;;;18.18;71.66;100198.16;5052999;28;20449;-69
2021/10/03 09:56:38;;;;;;;0.40;0.30;;;;;;;18.17;71.70;100196.56;5053077;28;20461;-70
2021/10/03 09:59:05;;;;;;;0.40;0.30;;;;;;;18.21;71.36;100206.44;5052902;28;20462;-69
2021/10/03 10:01:33;;;;;;;0.40;0.30;;;;;;;18.30;71.20;100200.75;5052868;28;20451;-69
2021/10/03 10:04:01;;;;;;;0.40;0.30;;;;;;;18.38;71.85;100202.47;5052946;28;20882;-69
2021/10/03 10:06:27;;;;;;;0.40;0.30;;;;;;;18.54;71.07;100199.59;5052926;28;20457;-69
2021/10/03 10:08:56;;;;;;;0.40;0.20;;;;;;;18.79;70.27;100189.13;5052808;28;20482;-69
2021/10/03 10:11:35;;;;;;;0.40;0.20;;;;;;;18.93;68.80;100196.78;5052914;28;20441;-69
2021/10/03 10:14:04;;;;;;;0.40;0.20;;;;;;;19.07;68.77;100199.75;5052898;28;20478;-69
2021/10/03 10:16:34;;;;;;;0.40;0.30;;;;;;;19.13;67.73;100195.56;5052571;28;20456;-70
2021/10/03 10:19:26;;;;;;;0.40;0.30;;;;;;;19.24;68.57;100202.00;5052425;28;20481;-69
2021/10/03 10:22:41;;;;;;;0.40;0.23;;;;;;;19.43;67.28;100201.09;5052554;28;20988;-69
2021/10/03 10:25:19;;;;;;;0.40;0.20;;;;;;;19.54;68.68;100196.56;5052445;28;20426;-69
2021/10/03 10:28:06;;;;;;;0.40;0.20;;;;;;;19.61;67.44;100188.44;5052698;28;20494;-69
2021/10/03 10:30:34;;;;;;;0.40;0.30;;;;;;;19.68;67.47;100193.25;5052393;28;20531;-69
2021/10/03 10:33:05;;;;;;;0.93;0.93;;;;;;;19.75;67.87;100187.06;5052638;28;20445;-69
2021/10/03 10:35:32;;;;;;;0.40;0.30;;;;;;;19.79;66.54;100185.13;5052805;28;20458;-69
2021/10/03 10:38:13;;;;;;;0.40;0.30;;;;;;;19.92;68.32;100189.22;5055273;28;20458;-69
2021/10/03 10:40:40;;;;;;;0.40;0.30;;;;;;;20.09;66.88;100193.34;5056505;28;20477;-69
2021/10/03 10:43:45;;;;;;;0.40;0.20;;;;;;;20.29;65.64;100196.72;5056787;28;20453;-69
2021/10/03 10:46:47;;;;;;;0.50;0.20;;;;;;;20.44;64.69;100192.16;5056322;28;20433;-69
2021/10/03 10:49:36;;;;;;;0.40;0.20;;;;;;;20.58;65.42;100187.63;5044862;28;20500;-69
2021/10/03 10:52:29;;;;;;;0.40;0.20;;;;;;;20.76;64.59;100193.31;5056097;28;20469;-69
2021/10/03 10:55:32;;;;;;;0.40;0.20;;;;;;;21.09;62.58;100214.44;5056151;28;20493;-70
2021/10/03 10:58:19;;;;;;;0.40;0.30;;;;;;;21.41;62.99;100213.91;5056080;28;20470;-69
2021/10/03 11:00:56;;;;;;;0.40;0.27;;;;;;;21.54;62.38;100212.41;5056109;28;20423;-70
2021/10/03 11:04:04;;;;;;;0.40;0.20;;;;;;;21.50;60.30;100216.31;5056098;28;20434;-70
2021/10/03 11:06:58;;;;;;;0.40;0.23;;;;;;;21.58;61.50;100218.72;5056023;28;20423;-70
2021/10/03 11:09:25;;;;;;;0.40;0.30;;;;;;;21.69;60.90;100207.75;5055869;28;20489;-70
2021/10/03 11:12:09;;;;;;;1.23;1.07;;;;;;;21.85;59.86;100211.00;5055891;28;20438;-69
2021/10/03 11:14:37;;;;;;;0.40;0.30;;;;;;;22.02;59.19;100212.25;5055965;28;20438;-69
2021/10/03 11:17:07;;;;;;;0.40;0.30;;;;;;;22.14;59.46;100213.94;5055771;28;20533;-69
2021/10/03 11:19:50;;;;;;;0.40;0.30;;;;;;;22.75;59.07;100206.56;5055266;28;20482;-70
2021/10/03 11:22:22;;;;;;;0.40;0.20;;;;;;;22.98;56.45;100205.44;5055788;28;20445;-70
2021/10/03 11:24:51;;;;;;;0.40;0.30;;;;;;;23.25;56.00;100211.34;5055782;28;20434;-70
2021/10/03 11:27:20;;;;;;;0.40;0.30;;;;;;;23.72;54.53;100212.84;5055509;28;20438;-69
2021/10/03 11:29:48;;;;;;;0.40;0.30;;;;;;;24.22;54.16;100212.66;5055437;28;20488;-70
2021/10/03 11:32:17;;;;;;;0.40;0.30;;;;;;;24.00;53.10;100205.66;5055423;28;20446;-70